createdAt,value
2018-11-23T00:01:05.929Z,8.74
2018-11-23T00:03:36.708Z,8.75
2018-11-23T00:06:08.218Z,8.79
2018-11-23T00:08:45.343Z,8.77
2018-11-23T00:11:16.054Z,8.83
2018-11-23T00:13:46.985Z,8.90
2018-11-23T00:16:17.615Z,9.02
2018-11-23T00:18:48.216Z,9.00
2018-11-23T00:21:18.838Z,8.96
2018-11-23T00:23:49.460Z,8.99
2018-11-23T00:26:20.159Z,9.21
2018-11-23T00:28:50.892Z,9.09
2018-11-23T00:31:21.475Z,8.98
2018-11-23T00:33:52.249Z,8.93
2018-11-23T00:36:22.880Z,8.94
2018-11-23T00:38:53.460Z,8.86
2018-11-23T00:41:24.207Z,8.85
2018-11-23T00:43:54.878Z,8.91
2018-11-23T00:46:25.470Z,8.98
2018-11-23T00:48:56.169Z,8.98
2018-11-23T00:51:26.738Z,9.01
2018-11-23T00:53:57.423Z,9.05
2018-11-23T00:56:28.485Z,9.05
2018-11-23T00:58:59.687Z,9.10
2018-11-23T01:01:34.318Z,9.17
2018-11-23T01:04:05.049Z,9.10
2018-11-23T01:06:35.742Z,9.13
2018-11-23T01:09:12.311Z,8.96
2018-11-23T01:11:43.905Z,8.81
2018-11-23T01:14:14.538Z,8.82
2018-11-23T01:16:45.192Z,8.82
2018-11-23T01:19:15.813Z,8.70
2018-11-23T01:21:47.710Z,8.67
2018-11-23T01:24:18.340Z,8.75
2018-11-23T01:26:49.581Z,8.67
2018-11-23T01:29:20.197Z,8.66
2018-11-23T01:31:50.833Z,8.67
2018-11-23T01:34:21.502Z,8.64
2018-11-23T01:36:52.263Z,8.62
2018-11-23T01:39:22.924Z,8.52
2018-11-23T01:41:53.686Z,8.45
2018-11-23T01:44:24.314Z,8.43
2018-11-23T01:46:54.989Z,8.26
2018-11-23T01:49:26.353Z,8.41
2018-11-23T01:51:56.924Z,8.48
2018-11-23T01:54:27.768Z,8.50
2018-11-23T01:56:58.396Z,8.53
2018-11-23T01:59:29.787Z,8.53
2018-11-23T02:02:00.818Z,8.57
2018-11-23T02:04:32.694Z,8.59
2018-11-23T02:07:05.371Z,8.59
2018-11-23T02:09:36.613Z,8.48
2018-11-23T02:12:08.483Z,8.41
2018-11-23T02:14:39.742Z,8.41
2018-11-23T02:17:11.649Z,8.42
2018-11-23T02:19:42.260Z,8.55
2018-11-23T02:22:13.055Z,8.54
2018-11-23T02:24:43.723Z,8.68
2018-11-23T02:27:14.375Z,8.81
2018-11-23T02:29:45.021Z,8.86
2018-11-23T02:32:15.685Z,8.69
2018-11-23T02:34:46.385Z,8.68
2018-11-23T02:37:17.062Z,8.79
2018-11-23T02:39:47.978Z,8.83
2018-11-23T02:42:18.632Z,8.81
2018-11-23T02:44:49.367Z,8.84
2018-11-23T02:47:20.386Z,8.85
2018-11-23T02:49:51.003Z,8.93
2018-11-23T02:52:21.705Z,9.00
2018-11-23T02:54:52.379Z,8.95
2018-11-23T02:57:23.050Z,9.03
2018-11-23T02:59:54.196Z,8.91
2018-11-23T03:02:25.027Z,8.86
2018-11-23T03:04:55.683Z,8.79
2018-11-23T03:07:27.474Z,8.62
2018-11-23T03:09:58.389Z,8.55
2018-11-23T03:12:29.066Z,8.60
2018-11-23T03:14:59.826Z,8.65
2018-11-23T03:17:30.398Z,8.41
2018-11-23T03:20:01.035Z,8.41
2018-11-23T03:22:33.485Z,8.34
2018-11-23T03:25:06.034Z,8.26
2018-11-23T03:27:37.150Z,8.18
2018-11-23T03:30:15.782Z,8.14
2018-11-23T03:32:48.361Z,8.03
2018-11-23T03:35:19.649Z,8.02
2018-11-23T03:37:56.858Z,7.93
2018-11-23T03:40:27.469Z,7.87
2018-11-23T03:42:58.119Z,7.88
2018-11-23T03:45:28.975Z,7.79
2018-11-23T03:47:59.743Z,7.71
2018-11-23T03:50:30.493Z,7.63
2018-11-23T03:53:06.409Z,7.58
2018-11-23T03:55:37.078Z,7.61
2018-11-23T03:58:08.574Z,7.58
2018-11-23T04:00:39.206Z,7.58
2018-11-23T04:03:10.206Z,7.57
2018-11-23T04:05:41.427Z,7.57
2018-11-23T04:08:12.077Z,7.52
2018-11-23T04:10:42.709Z,7.52
2018-11-23T04:13:13.471Z,7.44
2018-11-23T04:15:44.111Z,7.39
2018-11-23T04:18:15.827Z,7.43
2018-11-23T04:20:52.050Z,7.25
2018-11-23T04:23:22.677Z,7.19
2018-11-23T04:25:53.433Z,7.14
2018-11-23T04:28:24.745Z,7.15
2018-11-23T04:30:55.485Z,7.22
2018-11-23T04:33:26.557Z,7.19
2018-11-23T04:35:57.823Z,7.30
2018-11-23T04:38:29.123Z,7.26
2018-11-23T04:41:03.350Z,7.19
2018-11-23T04:43:34.059Z,7.20
2018-11-23T04:46:05.236Z,6.99
2018-11-23T04:48:36.482Z,7.02
2018-11-23T04:51:07.375Z,7.03
2018-11-23T04:53:37.993Z,7.06
2018-11-23T04:56:15.093Z,7.07
2018-11-23T04:58:46.672Z,7.03
2018-11-23T05:01:17.297Z,7.05
2018-11-23T05:03:48.242Z,7.02
2018-11-23T05:06:18.905Z,7.02
2018-11-23T05:08:49.503Z,7.08
2018-11-23T05:11:20.214Z,7.12
2018-11-23T05:13:50.846Z,7.02
2018-11-23T05:16:21.519Z,7.00
2018-11-23T05:18:53.386Z,7.02
2018-11-23T05:21:24.018Z,6.93
2018-11-23T05:23:54.699Z,6.93
2018-11-23T05:26:25.337Z,6.73
2018-11-23T05:28:55.970Z,6.63
2018-11-23T05:31:27.810Z,6.63
2018-11-23T05:33:58.454Z,6.62
2018-11-23T05:36:35.320Z,6.69
2018-11-23T05:39:08.530Z,6.83
2018-11-23T05:41:39.805Z,6.93
2018-11-23T05:44:10.509Z,6.91
2018-11-23T05:46:41.163Z,6.78
2018-11-23T05:49:11.878Z,6.68
2018-11-23T05:51:44.888Z,6.58
2018-11-23T05:54:15.548Z,6.55
2018-11-23T05:56:46.191Z,6.54
2018-11-23T05:59:16.786Z,6.55
2018-11-23T06:01:47.457Z,6.59
2018-11-23T06:04:18.045Z,6.67
2018-11-23T06:06:48.862Z,6.63
2018-11-23T06:09:19.460Z,6.59
2018-11-23T06:11:50.226Z,6.60
2018-11-23T06:14:20.853Z,6.51
2018-11-23T06:16:51.506Z,6.46
2018-11-23T06:19:22.401Z,6.49
2018-11-23T06:21:53.097Z,6.54
2018-11-23T06:24:27.575Z,6.53
2018-11-23T06:26:55.173Z,6.51
2018-11-23T06:29:25.821Z,6.53
2018-11-23T06:31:57.072Z,6.46
2018-11-23T06:34:27.210Z,6.61
2018-11-23T06:36:57.901Z,6.65
2018-11-23T06:39:28.538Z,6.65
2018-11-23T06:41:59.243Z,6.69
2018-11-23T06:44:31.082Z,6.64
2018-11-23T06:47:05.534Z,6.64
2018-11-23T06:49:36.166Z,6.68
2018-11-23T06:52:09.052Z,6.68
2018-11-23T06:54:39.710Z,6.60
2018-11-23T06:57:10.819Z,6.55
2018-11-23T06:59:41.461Z,6.47
2018-11-23T07:02:18.410Z,6.39
2018-11-23T07:04:49.221Z,6.29
2018-11-23T07:07:20.058Z,6.27
2018-11-23T07:09:51.118Z,6.30
2018-11-23T07:12:21.763Z,6.25
2018-11-23T07:14:53.421Z,6.25
2018-11-23T07:17:25.012Z,6.26
2018-11-23T07:19:56.328Z,6.30
2018-11-23T07:22:27.231Z,6.32
2018-11-23T07:24:57.903Z,6.28
2018-11-23T07:27:28.622Z,6.29
2018-11-23T07:30:00.394Z,6.30
2018-11-23T07:32:31.046Z,6.29
2018-11-23T07:35:03.512Z,6.34
2018-11-23T07:37:34.835Z,6.49
2018-11-23T07:40:22.021Z,6.47
2018-11-23T07:42:52.922Z,6.50
2018-11-23T07:45:23.921Z,6.59
2018-11-23T07:47:54.525Z,6.60
2018-11-23T07:50:25.231Z,6.69
2018-11-23T07:52:55.922Z,6.78
2018-11-23T07:55:26.681Z,6.96
2018-11-23T07:57:57.312Z,6.90
2018-11-23T08:00:29.018Z,7.06
2018-11-23T08:02:59.627Z,7.00
2018-11-23T08:05:30.346Z,7.09
2018-11-23T08:08:01.111Z,7.07
2018-11-23T08:10:31.807Z,7.05
2018-11-23T08:13:07.289Z,6.86
2018-11-23T08:15:37.963Z,6.82
2018-11-23T08:18:09.013Z,6.83
2018-11-23T08:20:39.620Z,6.90
2018-11-23T08:23:10.327Z,6.95
2018-11-23T08:25:40.936Z,6.91
2018-11-23T08:28:11.618Z,7.03
2018-11-23T08:30:42.281Z,7.09
2018-11-23T08:33:12.938Z,7.26
2018-11-23T08:35:43.614Z,7.38
2018-11-23T08:38:14.372Z,7.39
2018-11-23T08:40:45.066Z,7.65
2018-11-23T08:43:16.093Z,7.83
2018-11-23T08:45:46.757Z,8.16
2018-11-23T08:48:17.960Z,8.30
2018-11-23T08:50:48.548Z,8.42
2018-11-23T08:53:19.181Z,8.45
2018-11-23T08:55:49.847Z,8.88
2018-11-23T08:58:20.466Z,9.35
2018-11-23T09:00:51.086Z,9.67
2018-11-23T09:03:34.252Z,9.94
2018-11-23T09:06:05.014Z,9.77
2018-11-23T09:08:35.688Z,9.64
2018-11-23T09:11:06.809Z,10.15
2018-11-23T09:13:37.501Z,10.14
2018-11-23T09:16:08.356Z,10.26
2018-11-23T09:18:39.032Z,10.63
2018-11-23T09:21:09.647Z,10.49
2018-11-23T09:23:40.410Z,10.23
2018-11-23T09:26:11.186Z,10.20
2018-11-23T09:28:41.841Z,10.12
2018-11-23T09:31:12.437Z,10.56
2018-11-23T09:33:43.553Z,13.20
2018-11-23T09:36:14.207Z,16.41
2018-11-23T09:38:44.889Z,19.55
2018-11-23T09:41:15.961Z,22.09
2018-11-23T09:43:46.590Z,23.20
2018-11-23T09:46:17.381Z,23.59
2018-11-23T09:48:48.055Z,23.73
2018-11-23T09:51:18.733Z,22.13
2018-11-23T09:53:50.012Z,21.22
2018-11-23T09:56:21.570Z,20.93
2018-11-23T09:58:52.646Z,19.61
2018-11-23T10:01:23.330Z,18.08
2018-11-23T10:03:53.961Z,18.82
2018-11-23T10:06:24.661Z,20.42
2018-11-23T10:08:55.541Z,22.74
2018-11-23T10:11:26.795Z,22.86
2018-11-23T10:13:57.601Z,22.91
2018-11-23T10:16:28.301Z,24.94
2018-11-23T10:18:59.007Z,25.33
2018-11-23T10:21:29.589Z,25.12
2018-11-23T10:24:00.272Z,25.05
2018-11-23T10:26:36.533Z,25.81
2018-11-23T10:29:07.262Z,26.58
2018-11-23T10:31:37.898Z,26.51
2018-11-23T10:34:11.524Z,29.06
2018-11-23T10:36:42.196Z,29.15
2018-11-23T10:39:14.555Z,30.05
2018-11-23T10:41:45.430Z,30.28
2018-11-23T10:44:16.786Z,29.49
2018-11-23T10:46:47.634Z,27.51
2018-11-23T10:49:18.293Z,24.81
2018-11-23T10:51:49.045Z,22.88
2018-11-23T10:54:19.693Z,20.90
2018-11-23T10:56:50.417Z,19.98
2018-11-23T10:59:21.085Z,19.76
2018-11-23T11:01:56.641Z,20.90
2018-11-23T11:04:32.229Z,22.77
2018-11-23T11:07:07.110Z,21.54
2018-11-23T11:09:38.237Z,20.85
2018-11-23T11:12:08.937Z,21.00
2018-11-23T11:14:39.584Z,21.11
2018-11-23T11:17:10.249Z,20.98
2018-11-23T11:19:41.090Z,20.86
2018-11-23T11:22:11.834Z,20.59
2018-11-23T11:24:42.486Z,20.83
2018-11-23T11:27:13.189Z,20.54
2018-11-23T11:29:44.021Z,20.56
2018-11-23T11:32:15.675Z,21.02
2018-11-23T11:34:46.450Z,21.63
2018-11-23T11:37:17.967Z,21.71
2018-11-23T11:39:48.641Z,21.57
2018-11-23T11:42:19.329Z,21.10
2018-11-23T11:44:49.961Z,20.10
2018-11-23T11:47:20.670Z,19.34
2018-11-23T11:49:54.665Z,18.85
2018-11-23T11:52:22.261Z,19.78
2018-11-23T11:54:52.990Z,20.37
2018-11-23T11:57:24.686Z,19.58
2018-11-23T11:59:55.301Z,19.43
2018-11-23T12:02:25.945Z,18.01
2018-11-23T12:04:57.236Z,16.81
2018-11-23T12:07:29.010Z,15.66
2018-11-23T12:09:59.585Z,15.41
2018-11-23T12:12:31.054Z,14.88
2018-11-23T12:15:03.202Z,14.54
2018-11-23T12:17:33.854Z,14.75
2018-11-23T12:20:11.634Z,14.79
2018-11-23T12:22:42.637Z,14.85
2018-11-23T12:25:13.248Z,14.73
2018-11-23T12:27:43.919Z,14.62
2018-11-23T12:30:17.624Z,14.42
2018-11-23T12:32:49.587Z,14.43
2018-11-23T12:35:20.980Z,14.60
2018-11-23T12:37:51.717Z,14.24
2018-11-23T12:40:23.260Z,14.14
2018-11-23T12:42:54.080Z,13.86
2018-11-23T12:45:25.214Z,13.46
2018-11-23T12:47:55.906Z,13.71
2018-11-23T12:50:26.643Z,13.33
2018-11-23T12:52:57.286Z,13.23
2018-11-23T12:55:27.939Z,13.27
2018-11-23T12:57:59.472Z,13.54
2018-11-23T13:00:30.593Z,13.82
2018-11-23T13:03:02.570Z,13.96
2018-11-23T13:05:34.190Z,13.98
2018-11-23T13:08:06.337Z,13.79
2018-11-23T13:10:37.653Z,13.46
2018-11-23T13:13:08.668Z,13.21
2018-11-23T13:15:42.229Z,12.91
2018-11-23T13:18:13.658Z,12.81
2018-11-23T13:20:44.273Z,13.11
2018-11-23T13:23:14.904Z,13.23
2018-11-23T13:25:45.525Z,13.08
2018-11-23T13:28:16.190Z,12.98
2018-11-23T13:30:46.769Z,13.00
2018-11-23T13:33:17.417Z,12.94
2018-11-23T13:35:47.998Z,12.70
2018-11-23T13:38:18.627Z,12.30
2018-11-23T13:40:49.252Z,12.24
2018-11-23T13:43:20.066Z,12.30
2018-11-23T13:45:50.705Z,12.41
2018-11-23T13:48:21.398Z,12.90
2018-11-23T13:50:52.023Z,13.39
2018-11-23T13:53:22.679Z,13.40
2018-11-23T13:55:53.421Z,13.45
2018-11-23T13:58:24.054Z,13.39
2018-11-23T14:00:54.750Z,13.76
2018-11-23T14:03:25.483Z,13.97
2018-11-23T14:05:56.237Z,14.25
2018-11-23T14:08:26.893Z,14.45
2018-11-23T14:10:57.749Z,14.45
2018-11-23T14:13:28.420Z,14.58
2018-11-23T14:15:59.035Z,14.65
2018-11-23T14:18:29.652Z,14.61
2018-11-23T14:21:00.987Z,14.60
2018-11-23T14:23:33.297Z,14.61
2018-11-23T14:26:05.525Z,14.59
2018-11-23T14:28:36.122Z,14.62
2018-11-23T14:31:07.049Z,14.88
2018-11-23T14:33:39.281Z,14.95
2018-11-23T14:36:09.912Z,14.92
2018-11-23T14:38:40.578Z,14.69
2018-11-23T14:41:11.187Z,14.52
2018-11-23T14:43:41.841Z,14.58
2018-11-23T14:46:13.089Z,14.56
2018-11-23T14:48:43.774Z,14.55
2018-11-23T14:51:15.037Z,14.55
2018-11-23T14:53:45.895Z,14.61
2018-11-23T14:56:16.653Z,14.68
2018-11-23T14:58:47.357Z,14.82
2018-11-23T15:01:18.506Z,14.86
2018-11-23T15:03:49.106Z,14.61
2018-11-23T15:06:19.751Z,14.64
2018-11-23T15:08:50.592Z,14.58
2018-11-23T15:11:21.369Z,14.28
2018-11-23T15:13:52.004Z,14.30
2018-11-23T15:16:22.685Z,14.12
2018-11-23T15:18:53.826Z,14.03
2018-11-23T15:21:24.430Z,14.07
2018-11-23T15:23:55.277Z,14.05
2018-11-23T15:26:26.322Z,14.08
2018-11-23T15:28:56.949Z,14.13
2018-11-23T15:31:27.826Z,14.10
2018-11-23T15:33:58.767Z,14.11
2018-11-23T15:36:29.367Z,14.07
2018-11-23T15:39:00.069Z,13.99
2018-11-23T15:41:32.940Z,13.92
2018-11-23T15:44:06.594Z,13.69
2018-11-23T15:46:37.293Z,13.61
2018-11-23T15:49:07.969Z,13.48
2018-11-23T15:51:38.726Z,13.49
2018-11-23T15:54:09.376Z,13.64
2018-11-23T15:56:40.024Z,13.63
2018-11-23T15:59:10.732Z,13.60
2018-11-23T16:01:41.943Z,13.48
2018-11-23T16:04:12.563Z,13.44
2018-11-23T16:06:43.209Z,13.37
2018-11-23T16:09:14.277Z,13.14
2018-11-23T16:11:44.999Z,13.04
2018-11-23T16:14:15.634Z,13.07
2018-11-23T16:16:46.314Z,13.03
2018-11-23T16:19:17.372Z,12.89
2018-11-23T16:21:48.008Z,12.88
2018-11-23T16:24:18.668Z,12.82
2018-11-23T16:26:49.397Z,12.74
2018-11-23T16:29:20.744Z,12.72
2018-11-23T16:31:51.490Z,12.66
2018-11-23T16:34:22.131Z,12.57
2018-11-23T16:36:52.777Z,12.51
2018-11-23T16:39:24.663Z,12.49
2018-11-23T16:41:55.320Z,12.38
2018-11-23T16:44:25.974Z,12.26
2018-11-23T16:46:56.695Z,12.24
2018-11-23T16:49:27.361Z,12.14
2018-11-23T16:51:58.033Z,12.12
2018-11-23T16:54:28.678Z,12.09
2018-11-23T16:56:59.370Z,12.03
2018-11-23T16:59:30.080Z,12.04
2018-11-23T17:02:00.909Z,11.97
2018-11-23T17:04:38.081Z,12.00
2018-11-23T17:07:12.994Z,12.04
2018-11-23T17:09:40.044Z,12.00
2018-11-23T17:12:10.749Z,11.97
2018-11-23T17:14:41.517Z,11.99
2018-11-23T17:17:12.150Z,11.87
2018-11-23T17:19:42.961Z,11.77
2018-11-23T17:22:13.645Z,11.80
2018-11-23T17:24:44.326Z,11.78
2018-11-23T17:27:14.915Z,11.92
2018-11-23T17:29:45.545Z,11.86
2018-11-23T17:32:16.523Z,11.82
2018-11-23T17:34:47.186Z,11.77
2018-11-23T17:37:18.104Z,11.79
2018-11-23T17:39:48.774Z,11.69
2018-11-23T17:42:19.585Z,11.70
2018-11-23T17:44:50.238Z,11.55
2018-11-23T17:47:20.908Z,11.57
2018-11-23T17:49:51.559Z,11.48
2018-11-23T17:52:22.287Z,11.39
2018-11-23T17:54:52.954Z,11.29
2018-11-23T17:57:23.777Z,11.30
2018-11-23T17:59:54.418Z,11.25
2018-11-23T18:02:27.366Z,11.26
2018-11-23T18:04:58.015Z,11.21
2018-11-23T18:07:28.743Z,11.10
2018-11-23T18:10:00.079Z,11.11
2018-11-23T18:12:36.426Z,11.11
2018-11-23T18:15:09.881Z,11.04
2018-11-23T18:17:40.626Z,11.00
2018-11-23T18:20:13.375Z,10.90
2018-11-23T18:22:45.293Z,10.84
2018-11-23T18:25:21.518Z,10.77
2018-11-23T18:27:57.186Z,10.68
2018-11-23T18:30:28.474Z,10.67
2018-11-23T18:32:59.130Z,10.56
2018-11-23T18:35:29.806Z,10.53
2018-11-23T18:38:00.682Z,10.52
2018-11-23T18:40:37.853Z,10.60
2018-11-23T18:43:08.188Z,10.67
2018-11-23T18:45:39.174Z,10.79
2018-11-23T18:48:09.769Z,10.68
2018-11-23T18:50:40.461Z,10.66
2018-11-23T18:53:11.195Z,10.62
2018-11-23T18:55:56.310Z,10.60
2018-11-23T19:01:32.021Z,10.45
2018-11-23T19:04:14.243Z,10.45
2018-11-23T19:06:57.050Z,10.52
2018-11-23T19:09:42.482Z,10.64
2018-11-23T19:12:26.931Z,10.49
2018-11-23T19:15:11.986Z,10.72
2018-11-23T19:17:57.659Z,10.81
2018-11-23T19:23:27.230Z,10.83
2018-11-23T19:26:07.641Z,10.90
2018-11-23T19:29:02.123Z,10.93
2018-11-23T19:31:43.493Z,10.93
2018-11-23T19:34:21.784Z,10.92
2018-11-23T19:37:04.475Z,11.00
2018-11-23T19:39:50.792Z,11.00
2018-11-23T19:42:36.991Z,11.02
2018-11-23T19:45:17.129Z,10.99
2018-11-23T19:47:57.540Z,11.02
2018-11-23T19:50:40.280Z,10.95
2018-11-23T19:53:28.065Z,10.95
2018-11-23T19:56:16.685Z,10.94
2018-11-23T19:58:57.558Z,10.61
2018-11-23T20:01:43.690Z,10.90
2018-11-23T20:04:24.041Z,10.94
2018-11-23T20:06:58.489Z,10.93
2018-11-23T20:09:29.175Z,10.91
2018-11-23T20:11:59.770Z,10.97
2018-11-23T20:14:30.448Z,10.93
2018-11-23T20:17:04.303Z,10.92
2018-11-23T20:19:35.368Z,10.83
2018-11-23T20:22:06.199Z,10.90
2018-11-23T20:24:36.993Z,10.90
2018-11-23T20:27:07.724Z,10.93
2018-11-23T20:29:38.877Z,10.95
2018-11-23T20:32:10.080Z,10.94
2018-11-23T20:34:41.109Z,10.98
2018-11-23T20:37:12.656Z,11.01
2018-11-23T20:39:53.091Z,10.99
2018-11-23T20:42:23.783Z,10.99
2018-11-23T20:44:54.515Z,10.97
2018-11-23T20:47:25.249Z,10.95
2018-11-23T20:49:56.039Z,10.91
2018-11-23T20:52:27.263Z,10.95
2018-11-23T20:54:59.643Z,10.94
2018-11-23T20:57:32.959Z,10.88
2018-11-23T21:00:11.754Z,10.89
2018-11-23T21:02:42.507Z,10.84
2018-11-23T21:05:15.596Z,10.75
2018-11-23T21:07:46.279Z,10.75
2018-11-23T21:10:20.214Z,10.74
2018-11-23T21:12:50.242Z,10.71
2018-11-23T21:15:27.386Z,10.70
2018-11-23T21:18:01.655Z,10.69
2018-11-23T21:20:39.982Z,10.58
2018-11-23T21:23:10.952Z,10.64
2018-11-23T21:25:42.557Z,10.57
2018-11-23T21:28:15.865Z,10.65
2018-11-23T21:30:47.015Z,10.67
2018-11-23T21:33:17.673Z,10.74
2018-11-23T21:35:48.310Z,10.71
2018-11-23T21:38:19.013Z,10.68
2018-11-23T21:40:50.633Z,10.67
2018-11-23T21:43:21.538Z,10.69
2018-11-23T21:45:52.641Z,10.63
2018-11-23T21:48:23.653Z,10.69
2018-11-23T21:50:54.496Z,10.66
2018-11-23T21:53:26.971Z,10.69
2018-11-23T21:55:57.816Z,10.77
2018-11-23T21:58:28.548Z,10.77
2018-11-23T22:00:59.248Z,10.69
2018-11-23T22:03:29.942Z,10.71
2018-11-23T22:06:00.935Z,10.70
2018-11-23T22:08:35.729Z,10.72
2018-11-23T22:11:07.140Z,10.75
2018-11-23T22:13:39.186Z,10.76
2018-11-23T22:16:10.026Z,10.66
2018-11-23T22:18:40.669Z,10.69
2018-11-23T22:21:11.570Z,10.70
2018-11-23T22:23:42.208Z,10.66
2018-11-23T22:26:12.951Z,10.68
2018-11-23T22:28:43.587Z,10.61
2018-11-23T22:31:14.445Z,10.60
2018-11-23T22:33:45.513Z,10.66
2018-11-23T22:36:16.249Z,10.63
2018-11-23T22:38:46.945Z,10.60
2018-11-23T22:41:19.206Z,10.60
2018-11-23T22:43:49.946Z,10.51
2018-11-23T22:46:20.874Z,10.40
2018-11-23T22:48:51.533Z,10.45
2018-11-23T22:51:22.229Z,10.44
2018-11-23T22:53:53.258Z,10.45
2018-11-23T22:56:34.499Z,10.42
2018-11-23T22:59:05.995Z,10.46
2018-11-23T23:01:53.637Z,10.58
2018-11-23T23:04:24.698Z,10.58
2018-11-23T23:06:55.411Z,10.63
2018-11-23T23:09:27.290Z,10.59
2018-11-23T23:11:58.044Z,10.60
2018-11-23T23:14:29.415Z,10.51
2018-11-23T23:17:00.821Z,10.47
2018-11-23T23:19:35.001Z,10.55
2018-11-23T23:22:07.986Z,10.54
2018-11-23T23:24:38.678Z,10.59
2018-11-23T23:27:09.349Z,10.58
2018-11-23T23:29:40.037Z,10.64
2018-11-23T23:32:10.718Z,10.65
2018-11-23T23:34:41.241Z,10.64
2018-11-23T23:37:12.087Z,10.68
2018-11-23T23:39:42.740Z,10.74
2018-11-23T23:42:13.869Z,10.79
2018-11-23T23:44:45.395Z,10.78
2018-11-23T23:47:16.118Z,10.80
2018-11-23T23:49:46.786Z,10.78
2018-11-23T23:52:18.429Z,10.75
2018-11-23T23:54:49.065Z,10.70
2018-11-23T23:57:20.895Z,10.71
2018-11-23T23:59:51.512Z,10.72
